Weather at El Encinal Heliport

Public forecast

Using degrees Celsius for public forecast. Weather courtesy of forecast.io.

Closest aviation weather report (METAR) to El Encinal Heliport

Closest report is General Heriberto Jara International Airport, 66.7 nm (123.6 km) N. Retrieved 2020/11/30 04:45 UTC (1 hour ago):

MMVR 300445Z 04003KT 6SM SCT010 BKN030 25/23 A3006 RMK 60005 8/800 HZY RAE36 OCNL DROPS

Closest aviation forecast (TAF) to El Encinal Heliport

Closest forecast is General Heriberto Jara International Airport, 66.7 nm (123.6 km) N. Retrieved 2020/11/30 06:49 UTC (0 seconds ago):

TAF MMVR 300442Z 3006/0106 02015KT 5SM -RA BKN010 OVC030 TX27/3020Z TN20/3012Z TEMPO 3012/3016 1SM RA OVC008 FM301800 33020G30KT 4SM -RA BKN010 OVC050 TEMPO 3021/0101 2SM RA